createdAt,value
2023-03-24T00:00:59.000Z,0
2023-03-24T00:02:28.045Z,0
2023-03-24T00:03:43.989Z,0
2023-03-24T00:05:00.431Z,0
2023-03-24T00:07:04.457Z,0
2023-03-24T00:07:32.818Z,0
2023-03-24T00:08:48.769Z,0
2023-03-24T00:10:04.965Z,0
2023-03-24T00:11:08.000Z,0
2023-03-24T00:12:37.355Z,0
2023-03-24T00:13:52.566Z,0
2023-03-24T00:15:09.020Z,0
2023-03-24T00:16:24.957Z,0
2023-03-24T00:17:41.152Z,0
2023-03-24T00:18:44.000Z,0
2023-03-24T00:20:13.789Z,0
2023-03-24T00:21:17.000Z,0
2023-03-24T00:22:45.210Z,0
2023-03-24T00:23:47.000Z,0
2023-03-24T00:25:16.367Z,0
2023-03-24T00:26:31.831Z,0
2023-03-24T00:27:48.034Z,0
2023-03-24T00:29:02.995Z,0
2023-03-24T00:30:06.000Z,0
2023-03-24T00:31:35.635Z,0
2023-03-24T00:32:39.000Z,0
2023-03-24T00:34:07.776Z,0
2023-03-24T00:35:23.972Z,0
2023-03-24T00:36:40.167Z,0
2023-03-24T00:37:56.604Z,0
2023-03-24T00:39:00.000Z,0
2023-03-24T00:40:28.996Z,0
2023-03-24T00:41:45.192Z,0
2023-03-24T00:43:01.145Z,0
2023-03-24T00:44:17.340Z,0
2023-03-24T00:45:32.552Z,0
2023-03-24T00:46:48.747Z,0
2023-03-24T00:48:05.191Z,0
2023-03-24T00:49:08.000Z,0
2023-03-24T00:50:37.333Z,0
2023-03-24T00:51:41.000Z,0
2023-03-24T00:53:09.725Z,0
2023-03-24T00:54:13.000Z,0
2023-03-24T00:55:42.364Z,0
2023-03-24T00:56:57.337Z,0
2023-03-24T00:58:12.805Z,0
2023-03-24T00:59:28.743Z,0
2023-03-24T01:00:44.939Z,0
2023-03-24T01:02:00.160Z,0
2023-03-24T01:03:16.356Z,0
2023-03-24T01:04:31.819Z,0
2023-03-24T01:05:48.012Z,0
2023-03-24T01:06:51.000Z,0
2023-03-24T01:08:07.000Z,0
2023-03-24T01:09:36.355Z,0
2023-03-24T01:10:52.550Z,0
2023-03-24T01:11:56.000Z,0
2023-03-24T01:13:24.941Z,0
2023-03-24T01:14:41.137Z,0
2023-03-24T01:15:57.615Z,0
2023-03-24T01:17:01.000Z,0
2023-03-24T01:18:29.970Z,0
2023-03-24T01:19:33.000Z,0
2023-03-24T01:21:02.114Z,0
2023-03-24T01:22:04.000Z,0
2023-03-24T01:23:33.522Z,0
2023-03-24T01:24:49.717Z,0
2023-03-24T01:26:06.157Z,0
2023-03-24T01:27:22.351Z,0
2023-03-24T01:28:37.331Z,0
2023-03-24T01:29:52.542Z,0
2023-03-24T01:31:07.764Z,0
2023-03-24T01:32:22.975Z,0
2023-03-24T01:33:39.417Z,0
2023-03-24T01:34:55.617Z,0
2023-03-24T01:36:11.562Z,0
2023-03-24T01:37:28.010Z,0
2023-03-24T01:38:31.000Z,0
2023-03-24T01:40:00.149Z,0
2023-03-24T01:41:16.344Z,0
2023-03-24T01:42:32.782Z,0
2023-03-24T01:43:48.735Z,0
2023-03-24T01:44:52.000Z,0
2023-03-24T01:46:21.127Z,0
2023-03-24T01:47:24.000Z,0
2023-03-24T01:48:52.534Z,0
2023-03-24T01:50:08.980Z,0
2023-03-24T01:51:24.924Z,0
2023-03-24T01:52:28.000Z,0
2023-03-24T01:53:57.315Z,0
2023-03-24T01:55:13.751Z,0
2023-03-24T01:56:29.706Z,0
2023-03-24T01:57:44.927Z,0
2023-03-24T01:59:00.139Z,0
2023-03-24T02:00:16.333Z,0
2023-03-24T02:01:31.556Z,0
2023-03-24T02:02:46.767Z,0
2023-03-24T02:04:03.211Z,0
2023-03-24T02:05:19.159Z,0
2023-03-24T02:06:35.355Z,0
2023-03-24T02:07:51.796Z,0
2023-03-24T02:09:07.746Z,0
2023-03-24T02:10:11.000Z,0
2023-03-24T02:11:40.383Z,0
2023-03-24T02:12:56.332Z,0
2023-03-24T02:14:12.528Z,0
2023-03-24T02:15:28.723Z,0
2023-03-24T02:16:44.919Z,0
2023-03-24T02:17:48.000Z,0
2023-03-24T02:19:16.570Z,0
2023-03-24T02:20:32.764Z,0
2023-03-24T02:21:48.716Z,0
2023-03-24T02:24:21.350Z,0
2023-03-24T02:25:24.000Z,0
2023-03-24T02:26:53.498Z,0
2023-03-24T02:28:09.693Z,0
2023-03-24T02:29:24.916Z,0
2023-03-24T02:30:27.000Z,0
2023-03-24T02:31:55.349Z,0
2023-03-24T02:32:58.000Z,0
2023-03-24T02:34:26.757Z,0
2023-03-24T02:35:42.952Z,0
2023-03-24T02:36:59.148Z,0
2023-03-24T02:38:15.343Z,0
2023-03-24T02:38:45.000Z,0
2023-03-24T02:39:31.539Z,0
2023-03-24T02:40:35.000Z,0
2023-03-24T02:42:03.930Z,0
2023-03-24T02:43:07.000Z,0
2023-03-24T02:45:40.000Z,0
2023-03-24T02:46:56.000Z,0
2023-03-24T02:48:25.156Z,0
2023-03-24T02:49:41.103Z,0
2023-03-24T02:50:56.314Z,0
2023-03-24T02:52:12.510Z,0
2023-03-24T02:53:16.000Z,0
2023-03-24T02:54:32.000Z,0
2023-03-24T02:55:48.000Z,0
2023-03-24T02:57:17.292Z,0
2023-03-24T02:58:20.000Z,0
2023-03-24T02:59:48.709Z,0
2023-03-24T03:00:51.000Z,0
2023-03-24T03:02:19.384Z,0
2023-03-24T03:03:21.000Z,0
2023-03-24T03:04:38.000Z,0
2023-03-24T03:06:06.745Z,0
2023-03-24T03:07:22.941Z,0
2023-03-24T03:08:39.136Z,0
2023-03-24T03:09:55.332Z,0
2023-03-24T03:10:59.000Z,0
2023-03-24T03:12:27.963Z,0
2023-03-24T03:13:44.169Z,0
2023-03-24T03:15:00.114Z,0
2023-03-24T03:16:03.000Z,0
2023-03-24T03:17:32.742Z,0
2023-03-24T03:18:48.700Z,0
2023-03-24T03:20:05.153Z,0
2023-03-24T03:21:07.000Z,0
2023-03-24T03:22:36.303Z,0
2023-03-24T03:23:40.000Z,0
2023-03-24T03:24:56.000Z,0
2023-03-24T03:26:25.128Z,0
2023-03-24T03:27:41.085Z,0
2023-03-24T03:28:44.000Z,0
2023-03-24T03:30:13.726Z,0
2023-03-24T03:31:29.671Z,0
2023-03-24T03:32:33.000Z,0
2023-03-24T03:34:02.062Z,0
2023-03-24T03:35:18.502Z,0
2023-03-24T03:36:34.699Z,0
2023-03-24T03:37:49.665Z,0
2023-03-24T03:39:06.120Z,0
2023-03-24T03:40:09.000Z,0
2023-03-24T03:41:47.192Z,0
2023-03-24T03:42:53.473Z,0
2023-03-24T03:44:08.928Z,0
2023-03-24T03:45:11.000Z,0
2023-03-24T03:46:39.118Z,0
2023-03-24T03:47:42.000Z,0
2023-03-24T03:48:59.000Z,0
2023-03-24T03:50:27.705Z,0
2023-03-24T03:51:44.149Z,0
2023-03-24T03:53:00.096Z,0
2023-03-24T03:54:03.000Z,0
2023-03-24T03:55:20.000Z,0
2023-03-24T03:56:48.682Z,0
2023-03-24T03:58:05.131Z,0
2023-03-24T03:59:08.000Z,0
2023-03-24T04:00:37.519Z,0
2023-03-24T04:01:53.464Z,0
2023-03-24T04:03:08.929Z,0
2023-03-24T04:04:25.122Z,0
2023-03-24T04:05:41.067Z,0
2023-03-24T04:07:25.072Z,0
2023-03-24T04:08:13.458Z,0
2023-03-24T04:09:17.000Z,0
2023-03-24T04:10:33.000Z,0
2023-03-24T04:12:01.070Z,0
2023-03-24T04:13:16.527Z,0
2023-03-24T04:14:31.504Z,0
2023-03-24T04:15:46.716Z,0
2023-03-24T04:17:02.911Z,0
2023-03-24T04:18:19.349Z,0
2023-03-24T04:19:35.544Z,0
2023-03-24T04:20:51.498Z,0
2023-03-24T04:21:55.000Z,0
2023-03-24T04:23:23.889Z,0
2023-03-24T04:24:40.084Z,0
2023-03-24T04:25:56.280Z,0
2023-03-24T04:27:12.475Z,0
2023-03-24T04:28:28.671Z,0
2023-03-24T04:29:45.114Z,0
2023-03-24T04:31:01.306Z,0
2023-03-24T04:32:16.529Z,0
2023-03-24T04:33:32.720Z,0
2023-03-24T04:34:48.914Z,0
2023-03-24T04:36:05.111Z,0
2023-03-24T04:37:21.055Z,0
2023-03-24T04:38:37.251Z,0
2023-03-24T04:39:53.690Z,0
2023-03-24T04:41:08.669Z,0
2023-03-24T04:42:23.880Z,0
2023-03-24T04:43:40.076Z,0
2023-03-24T04:44:55.543Z,0
2023-03-24T04:46:10.511Z,0
2023-03-24T04:47:26.946Z,0
2023-03-24T04:48:43.155Z,0
2023-03-24T04:50:28.678Z,0
2023-03-24T04:51:15.545Z,0
2023-03-24T04:52:18.000Z,0
2023-03-24T04:53:47.687Z,0
2023-03-24T04:55:04.130Z,0
2023-03-24T04:56:07.000Z,0
2023-03-24T04:57:42.810Z,0
2023-03-24T04:58:52.470Z,0
2023-03-24T05:00:08.909Z,0
2023-03-24T05:01:25.118Z,0
2023-03-24T05:02:49.583Z,0
2023-03-24T05:03:56.531Z,0
2023-03-24T05:04:59.000Z,0
2023-03-24T05:06:28.914Z,0
2023-03-24T05:07:32.000Z,0
2023-03-24T05:08:48.000Z,0
2023-03-24T05:10:04.000Z,0
2023-03-24T05:11:33.690Z,0
2023-03-24T05:12:48.912Z,0
2023-03-24T05:14:04.125Z,0
2023-03-24T05:15:20.317Z,0
2023-03-24T05:16:40.731Z,0
2023-03-24T05:17:47.000Z,0
2023-03-24T05:19:05.980Z,0
2023-03-24T05:20:09.000Z,0
2023-03-24T05:21:38.365Z,0
2023-03-24T05:22:41.000Z,0
2023-03-24T05:24:10.508Z,0
2023-03-24T05:25:23.000Z,0
2023-03-24T05:26:43.145Z,0
2023-03-24T05:27:46.000Z,0
2023-03-24T05:29:15.292Z,0
2023-03-24T05:30:31.487Z,0
2023-03-24T05:31:35.000Z,0
2023-03-24T05:33:04.121Z,0
2023-03-24T05:34:20.318Z,0
2023-03-24T05:35:22.000Z,0
2023-03-24T05:36:51.483Z,5
2023-03-24T05:38:07.678Z,5
2023-03-24T05:39:23.875Z,5
2023-03-24T05:40:50.381Z,11
2023-03-24T05:41:56.512Z,11
2023-03-24T05:43:11.743Z,11
2023-03-24T05:45:22.996Z,11
2023-03-24T05:45:42.896Z,11
2023-03-24T05:46:59.092Z,11
2023-03-24T05:49:00.560Z,16
2023-03-24T05:49:30.510Z,16
2023-03-24T05:50:45.721Z,16
2023-03-24T05:52:02.171Z,11
2023-03-24T05:53:05.000Z,11
2023-03-24T05:54:34.308Z,16
2023-03-24T05:56:10.735Z,16
2023-03-24T05:57:06.700Z,22
2023-03-24T05:58:10.000Z,22
2023-03-24T05:59:39.091Z,28
2023-03-24T06:01:20.491Z,28
2023-03-24T06:02:11.483Z,39
2023-03-24T06:03:27.678Z,45
2023-03-24T06:04:43.874Z,45
2023-03-24T06:06:00.069Z,39
2023-03-24T06:07:15.282Z,39
2023-03-24T06:08:18.000Z,39
2023-03-24T06:09:47.674Z,39
2023-03-24T06:11:04.133Z,28
2023-03-24T06:12:20.066Z,28
2023-03-24T06:13:36.261Z,28
2023-03-24T06:14:52.712Z,39
2023-03-24T06:16:07.926Z,56
2023-03-24T06:17:22.892Z,56
2023-03-24T06:18:39.088Z,56
2023-03-24T06:19:41.000Z,45
2023-03-24T06:21:09.522Z,39
2023-03-24T06:22:13.000Z,50
2023-03-24T06:23:41.913Z,67
2023-03-24T06:24:58.109Z,78
2023-03-24T06:26:14.304Z,67
2023-03-24T06:26:44.000Z,84
2023-03-24T06:27:30.501Z,56
2023-03-24T06:28:34.000Z,61
2023-03-24T06:30:02.893Z,61
2023-03-24T06:31:06.000Z,73
2023-03-24T06:33:51.479Z,95
2023-03-24T06:35:07.675Z,95
2023-03-24T06:36:11.000Z,84
2023-03-24T06:37:27.000Z,78
2023-03-24T06:38:55.527Z,78
2023-03-24T06:40:11.720Z,56
2023-03-24T06:41:27.669Z,50
2023-03-24T06:42:56.851Z,61
2023-03-24T06:43:57.000Z,73
2023-03-24T06:45:16.258Z,73
2023-03-24T06:46:32.444Z,90
2023-03-24T06:48:04.635Z,90
2023-03-24T06:49:03.131Z,90
2023-03-24T06:50:19.333Z,101
2023-03-24T06:51:34.559Z,101
2023-03-24T06:52:03.000Z,151
2023-03-24T06:52:49.518Z,101
2023-03-24T06:54:05.969Z,106
2023-03-24T06:55:21.909Z,123
2023-03-24T06:56:38.104Z,140
2023-03-24T06:59:50.397Z,163
2023-03-24T07:00:26.940Z,157
2023-03-24T07:01:42.888Z,146
2023-03-24T07:02:59.084Z,135
2023-03-24T07:04:12.000Z,135
2023-03-24T07:05:31.475Z,140
2023-03-24T07:06:47.671Z,135
2023-03-24T07:08:03.867Z,129
2023-03-24T07:09:19.079Z,123
2023-03-24T07:10:35.275Z,112
2023-03-24T07:11:38.000Z,84
2023-03-24T07:13:07.667Z,67
2023-03-24T07:14:23.862Z,61
2023-03-24T07:15:40.058Z,61
2023-03-24T07:16:56.254Z,73
2023-03-24T07:18:11.477Z,90
2023-03-24T07:19:26.689Z,95
2023-03-24T07:20:42.885Z,101
2023-03-24T07:21:58.107Z,106
2023-03-24T07:23:13.319Z,112
2023-03-24T07:24:29.514Z,118
2023-03-24T07:25:45.710Z,118
2023-03-24T07:27:02.156Z,129
2023-03-24T07:28:18.102Z,129
2023-03-24T07:29:34.297Z,123
2023-03-24T07:30:50.493Z,118
2023-03-24T07:32:06.689Z,101
2023-03-24T07:33:10.000Z,90
2023-03-24T07:34:39.082Z,90
2023-03-24T07:35:55.278Z,78
2023-03-24T07:36:58.000Z,84
2023-03-24T07:38:27.936Z,73
2023-03-24T07:39:42.881Z,84
2023-03-24T07:40:59.077Z,67
2023-03-24T07:42:44.000Z,112
2023-03-24T07:42:59.946Z,56
2023-03-24T07:43:31.729Z,61
2023-03-24T07:44:47.909Z,61
2023-03-24T07:46:03.860Z,73
2023-03-24T07:47:07.000Z,84
2023-03-24T07:49:50.738Z,129
2023-03-24T07:51:06.686Z,101
2023-03-24T07:52:21.908Z,101
2023-03-24T07:53:38.358Z,112
2023-03-24T07:54:53.316Z,118
2023-03-24T07:56:09.764Z,123
2023-03-24T07:57:25.708Z,95
2023-03-24T07:58:41.904Z,90
2023-03-24T07:59:45.000Z,84
2023-03-24T08:01:14.297Z,78
2023-03-24T08:02:17.000Z,73
2023-03-24T08:03:46.688Z,78
2023-03-24T08:05:03.157Z,90
2023-03-24T08:06:06.000Z,95
2023-03-24T08:07:35.527Z,101
2023-03-24T08:08:51.730Z,90
2023-03-24T08:10:07.910Z,106
2023-03-24T08:11:10.000Z,106
2023-03-24T08:12:39.320Z,112
2023-03-24T08:13:55.539Z,118
2023-03-24T08:15:11.711Z,140
2023-03-24T08:16:15.000Z,151
2023-03-24T08:17:43.857Z,151
2023-03-24T08:18:59.081Z,151
2023-03-24T08:19:25.000Z,208
2023-03-24T08:20:01.000Z,157
2023-03-24T08:21:30.488Z,174
2023-03-24T08:22:45.710Z,163
2023-03-24T08:24:00.922Z,196
2023-03-24T08:26:33.314Z,219
2023-03-24T08:27:49.774Z,213
2023-03-24T08:29:05.705Z,241
2023-03-24T08:30:22.151Z,264
2023-03-24T08:31:38.344Z,292
2023-03-24T08:32:41.000Z,315
2023-03-24T08:33:57.000Z,320
2023-03-24T08:35:14.000Z,309
2023-03-24T08:36:42.879Z,298
2023-03-24T08:37:59.074Z,331
2023-03-24T08:39:15.530Z,360
2023-03-24T08:40:17.000Z,365
2023-03-24T08:41:46.679Z,343
2023-03-24T08:43:03.122Z,264
2023-03-24T08:44:19.317Z,270
2023-03-24T08:45:35.512Z,213
2023-03-24T08:46:51.708Z,219
2023-03-24T08:48:07.656Z,225
2023-03-24T08:49:22.878Z,180
2023-03-24T08:50:25.000Z,202
2023-03-24T08:51:05.000Z,157
2023-03-24T08:51:54.286Z,225
2023-03-24T08:52:56.000Z,258
2023-03-24T08:54:25.704Z,196
2023-03-24T08:55:40.915Z,174
2023-03-24T08:58:00.000Z,118
2023-03-24T08:59:29.502Z,129
2023-03-24T09:00:45.698Z,151
2023-03-24T09:02:02.145Z,168
2023-03-24T09:03:05.000Z,146
2023-03-24T09:04:34.286Z,146
2023-03-24T09:05:37.000Z,157
2023-03-24T09:06:54.000Z,163
2023-03-24T09:08:22.874Z,163
2023-03-24T09:09:26.000Z,191
2023-03-24T09:10:42.000Z,202
2023-03-24T09:12:10.727Z,174
2023-03-24T09:13:26.922Z,151
2023-03-24T09:14:43.115Z,168
2023-03-24T09:15:59.065Z,168
2023-03-24T09:17:15.261Z,151
2023-03-24T09:18:18.000Z,129
2023-03-24T09:19:35.000Z,135
2023-03-24T09:21:02.873Z,135
2023-03-24T09:22:18.084Z,185
2023-03-24T09:23:34.277Z,213
2023-03-24T09:24:50.737Z,275
2023-03-24T09:26:06.918Z,180
2023-03-24T09:27:23.114Z,208
2023-03-24T09:28:26.000Z,253
2023-03-24T09:29:55.245Z,286
2023-03-24T09:30:58.000Z,213
2023-03-24T09:32:27.884Z,163
2023-03-24T09:33:42.847Z,174
2023-03-24T09:34:59.040Z,247
2023-03-24T09:36:15.234Z,230
2023-03-24T09:37:18.000Z,191
2023-03-24T09:38:47.621Z,191
2023-03-24T09:40:04.063Z,213
2023-03-24T09:41:20.255Z,196
2023-03-24T09:42:36.452Z,151
2023-03-24T09:43:39.000Z,140
2023-03-24T09:45:08.588Z,140
2023-03-24T09:46:24.782Z,146
2023-03-24T09:47:40.258Z,151
2023-03-24T09:48:55.212Z,174
2023-03-24T09:49:57.000Z,180
2023-03-24T09:51:26.627Z,168
2023-03-24T09:52:41.837Z,135
2023-03-24T09:53:45.000Z,157
2023-03-24T09:55:14.224Z,157
2023-03-24T09:57:29.385Z,140
2023-03-24T09:57:46.866Z,140
2023-03-24T09:59:02.805Z,157
2023-03-24T10:00:18.998Z,123
2023-03-24T10:01:22.000Z,112
2023-03-24T10:02:51.385Z,129
2023-03-24T10:04:07.579Z,129
2023-03-24T10:05:24.020Z,135
2023-03-24T10:06:27.000Z,129
2023-03-24T10:07:56.407Z,135
2023-03-24T10:08:58.000Z,129
2023-03-24T10:10:14.000Z,129
2023-03-24T10:11:31.000Z,129
2023-03-24T10:12:59.950Z,135
2023-03-24T10:14:16.383Z,157
2023-03-24T10:15:32.338Z,135
2023-03-24T10:16:47.558Z,129
2023-03-24T10:18:03.037Z,129
2023-03-24T10:19:06.000Z,135
2023-03-24T10:20:35.155Z,135
2023-03-24T10:21:38.000Z,135
2023-03-24T10:22:54.000Z,135
2023-03-24T10:24:21.778Z,112
2023-03-24T10:25:37.972Z,112
2023-03-24T10:26:54.166Z,112
2023-03-24T10:28:10.642Z,129
2023-03-24T10:29:26.553Z,106
2023-03-24T10:30:30.000Z,106
2023-03-24T10:31:46.000Z,129
2023-03-24T10:33:15.381Z,112
2023-03-24T10:35:31.090Z,112
2023-03-24T10:35:34.000Z,129
2023-03-24T10:37:03.715Z,129
2023-03-24T10:38:20.155Z,123
2023-03-24T10:39:23.000Z,135
2023-03-24T10:40:38.000Z,135
2023-03-24T10:42:43.226Z,118
2023-03-24T10:43:23.699Z,129
2023-03-24T10:44:47.597Z,129
2023-03-24T10:45:56.086Z,135
2023-03-24T10:47:12.523Z,135
2023-03-24T10:48:28.473Z,129
2023-03-24T10:49:43.693Z,135
2023-03-24T10:50:46.000Z,135
2023-03-24T10:52:15.096Z,135
2023-03-24T10:53:31.290Z,135
2023-03-24T10:54:47.483Z,140
2023-03-24T10:55:15.000Z,157
2023-03-24T10:56:02.704Z,140
2023-03-24T10:57:18.160Z,140
2023-03-24T10:58:34.107Z,135
2023-03-24T10:59:37.000Z,135
2023-03-24T11:02:22.688Z,196
2023-03-24T11:03:38.881Z,185
2023-03-24T11:04:55.075Z,146
2023-03-24T11:06:11.268Z,168
2023-03-24T11:07:27.462Z,191
2023-03-24T11:08:43.655Z,236
2023-03-24T11:09:47.000Z,219
2023-03-24T11:11:16.042Z,174
2023-03-24T11:12:19.000Z,168
2023-03-24T11:13:48.694Z,151
2023-03-24T11:15:03.639Z,225
2023-03-24T11:16:20.087Z,225
2023-03-24T11:17:36.027Z,241
2023-03-24T11:18:52.474Z,225
2023-03-24T11:20:08.661Z,275
2023-03-24T11:21:12.000Z,253
2023-03-24T11:22:28.000Z,247
2023-03-24T11:23:44.000Z,202
2023-03-24T11:25:00.000Z,168
2023-03-24T11:26:29.382Z,168
2023-03-24T11:27:45.823Z,174
2023-03-24T11:29:02.018Z,191
2023-03-24T11:30:17.963Z,213
2023-03-24T11:31:33.174Z,281
2023-03-24T11:32:36.000Z,343
2023-03-24T11:34:05.802Z,320
2023-03-24T11:35:21.754Z,275
2023-03-24T11:36:37.947Z,298
2023-03-24T11:37:41.000Z,315
2023-03-24T11:39:09.361Z,326
2023-03-24T11:39:36.000Z,213
2023-03-24T11:40:24.570Z,331
2023-03-24T11:41:41.019Z,264
2023-03-24T11:42:56.959Z,219
2023-03-24T11:43:59.000Z,208
2023-03-24T11:46:43.845Z,208
2023-03-24T11:48:00.020Z,219
2023-03-24T11:49:16.215Z,270
2023-03-24T11:51:07.082Z,270
2023-03-24T11:51:48.356Z,208
2023-03-24T11:52:51.000Z,208
2023-03-24T11:54:20.743Z,225
2023-03-24T11:55:24.000Z,202
2023-03-24T11:56:53.377Z,213
2023-03-24T11:58:21.200Z,286
2023-03-24T11:59:12.000Z,354
2023-03-24T12:00:29.000Z,399
2023-03-24T12:01:57.904Z,393
2023-03-24T12:03:13.372Z,348
2023-03-24T12:04:29.562Z,315
2023-03-24T12:05:45.501Z,343
2023-03-24T12:07:01.695Z,382
2023-03-24T12:08:05.000Z,376
2023-03-24T12:09:21.000Z,416
2023-03-24T12:11:41.115Z,405
2023-03-24T12:11:51.000Z,354
2023-03-24T12:13:07.000Z,275
2023-03-24T12:14:22.000Z,292
2023-03-24T12:16:44.922Z,354
2023-03-24T12:17:07.574Z,348
2023-03-24T12:18:23.522Z,343
2023-03-24T12:19:27.000Z,382
2023-03-24T12:21:53.669Z,371
2023-03-24T12:22:12.104Z,326
2023-03-24T12:23:59.041Z,343
2023-03-24T12:24:44.491Z,354
2023-03-24T12:26:00.684Z,315
2023-03-24T12:27:17.126Z,241
2023-03-24T12:28:20.000Z,253
2023-03-24T12:29:49.265Z,264
2023-03-24T12:31:04.474Z,292
2023-03-24T12:32:20.915Z,298
2023-03-24T12:33:24.000Z,286
2023-03-24T12:34:40.000Z,292
2023-03-24T12:36:09.496Z,331
2023-03-24T12:37:12.000Z,371
2023-03-24T12:38:29.000Z,309
2023-03-24T12:39:45.000Z,258
2023-03-24T12:41:29.671Z,219
2023-03-24T12:42:30.216Z,185
2023-03-24T12:43:33.000Z,202
2023-03-24T12:44:49.000Z,247
2023-03-24T12:46:39.418Z,196
2023-03-24T12:47:34.017Z,163
2023-03-24T12:48:36.000Z,180
2023-03-24T12:49:52.000Z,180
2023-03-24T12:51:08.000Z,202
2023-03-24T12:52:36.121Z,208
2023-03-24T12:53:39.000Z,225
2023-03-24T12:55:08.237Z,230
2023-03-24T12:56:11.000Z,275
2023-03-24T12:57:40.874Z,309
2023-03-24T12:58:44.000Z,264
2023-03-24T13:00:13.011Z,208
2023-03-24T13:01:16.000Z,196
2023-03-24T13:02:45.398Z,185
2023-03-24T13:03:48.000Z,180
2023-03-24T13:05:18.025Z,213
2023-03-24T13:06:21.000Z,241
2023-03-24T13:07:50.414Z,298
2023-03-24T13:09:05.625Z,264
2023-03-24T13:10:21.576Z,191
2023-03-24T13:12:17.257Z,174
2023-03-24T13:12:53.963Z,219
2023-03-24T13:14:10.156Z,253
2023-03-24T13:15:26.349Z,286
2023-03-24T13:16:42.543Z,275
2023-03-24T13:17:58.983Z,241
2023-03-24T13:19:01.000Z,196
2023-03-24T13:20:29.417Z,180
2023-03-24T13:21:45.605Z,202
2023-03-24T13:23:01.554Z,225
2023-03-24T13:24:17.747Z,196
2023-03-24T13:25:32.968Z,174
2023-03-24T13:26:48.177Z,151
2023-03-24T13:28:04.622Z,129
2023-03-24T13:29:20.566Z,129
2023-03-24T13:30:36.759Z,135
2023-03-24T13:31:40.000Z,151
2023-03-24T13:33:09.146Z,180
2023-03-24T13:34:12.000Z,202
2023-03-24T13:35:28.000Z,253
2023-03-24T13:36:57.727Z,247
2023-03-24T13:38:14.169Z,241
2023-03-24T13:40:02.454Z,247
2023-03-24T13:40:33.000Z,303
2023-03-24T13:41:49.000Z,382
2023-03-24T13:43:17.963Z,343
2023-03-24T13:44:33.904Z,230
2023-03-24T13:45:50.098Z,185
2023-03-24T13:47:06.536Z,168
2023-03-24T13:48:21.507Z,135
2023-03-24T13:50:16.986Z,135
2023-03-24T13:50:54.145Z,151
2023-03-24T13:51:56.000Z,191
2023-03-24T13:53:24.324Z,247
2023-03-24T13:54:27.000Z,292
2023-03-24T13:55:43.000Z,303
2023-03-24T13:57:11.195Z,286
2023-03-24T13:58:27.140Z,275
2023-03-24T13:59:43.578Z,241
2023-03-24T14:00:59.527Z,258
2023-03-24T14:02:15.721Z,258
2023-03-24T14:03:19.000Z,258
2023-03-24T14:04:48.109Z,286
2023-03-24T14:06:04.302Z,315
2023-03-24T14:07:20.744Z,303
2023-03-24T14:08:36.689Z,241
2023-03-24T14:09:53.131Z,219
2023-03-24T14:10:56.000Z,264
2023-03-24T14:12:25.270Z,320
2023-03-24T14:13:40.734Z,281
2023-03-24T14:14:56.674Z,247
2023-03-24T14:16:12.867Z,219
2023-03-24T14:17:16.000Z,230
2023-03-24T14:18:45.254Z,253
2023-03-24T14:20:01.448Z,247
2023-03-24T14:21:17.891Z,270
2023-03-24T14:22:33.107Z,298
2023-03-24T14:23:48.319Z,270
2023-03-24T14:25:04.264Z,163
2023-03-24T14:26:20.457Z,95
2023-03-24T14:27:35.677Z,67
2023-03-24T14:28:38.000Z,50
2023-03-24T14:29:54.000Z,50
2023-03-24T14:31:23.274Z,45
2023-03-24T14:32:26.000Z,45
2023-03-24T14:33:55.661Z,50
2023-03-24T14:35:24.896Z,67
2023-03-24T14:36:28.048Z,101
2023-03-24T14:37:44.242Z,135
2023-03-24T14:39:00.694Z,174
2023-03-24T14:40:16.629Z,258
2023-03-24T14:41:33.066Z,303
2023-03-24T14:42:49.016Z,309
2023-03-24T14:44:05.209Z,281
2023-03-24T14:45:42.406Z,253
2023-03-24T14:46:36.613Z,219
2023-03-24T14:48:46.783Z,185
2023-03-24T14:49:09.000Z,196
2023-03-24T14:50:25.193Z,270
2023-03-24T14:51:41.652Z,264
2023-03-24T14:52:57.581Z,157
2023-03-24T14:54:13.048Z,118
2023-03-24T14:55:28.011Z,95
2023-03-24T14:56:30.000Z,84
2023-03-24T14:57:58.359Z,90
2023-03-24T14:59:14.635Z,106
2023-03-24T15:00:31.075Z,129
2023-03-24T15:01:34.000Z,146
2023-03-24T15:03:03.216Z,230
2023-03-24T15:04:19.409Z,270
2023-03-24T15:05:35.603Z,253
2023-03-24T15:06:51.797Z,185
2023-03-24T15:08:07.991Z,146
2023-03-24T15:09:24.184Z,135
2023-03-24T15:10:27.000Z,180
2023-03-24T15:11:43.000Z,225
2023-03-24T15:13:00.000Z,185
2023-03-24T15:14:27.975Z,151
2023-03-24T15:15:31.000Z,180
2023-03-24T15:17:00.361Z,185
2023-03-24T15:18:16.555Z,146
2023-03-24T15:19:32.748Z,112
2023-03-24T15:20:48.942Z,118
2023-03-24T15:22:05.384Z,118
2023-03-24T15:23:20.355Z,112
2023-03-24T15:24:36.548Z,112
2023-03-24T15:25:52.025Z,112
2023-03-24T15:26:55.000Z,106
2023-03-24T15:28:24.145Z,106
2023-03-24T15:29:40.587Z,106
2023-03-24T15:30:56.532Z,106
2023-03-24T15:32:00.000Z,106
2023-03-24T15:33:58.651Z,106
2023-03-24T15:34:45.112Z,101
2023-03-24T15:35:48.000Z,101
2023-03-24T15:37:04.000Z,101
2023-03-24T15:39:08.398Z,101
2023-03-24T15:39:49.886Z,101
2023-03-24T15:40:53.000Z,101
2023-03-24T15:42:22.273Z,101
2023-03-24T15:43:37.723Z,101
2023-03-24T15:44:53.676Z,101
2023-03-24T15:46:20.532Z,101
2023-03-24T15:47:26.063Z,101
2023-03-24T15:49:25.908Z,101
2023-03-24T15:49:45.000Z,101
2023-03-24T15:51:28.305Z,90
2023-03-24T15:52:29.129Z,90
2023-03-24T15:53:32.000Z,90
2023-03-24T15:55:01.267Z,90
2023-03-24T15:56:34.097Z,106
2023-03-24T15:57:31.697Z,129
2023-03-24T15:59:36.489Z,168
2023-03-24T15:59:51.000Z,146
2023-03-24T16:01:20.277Z,129
2023-03-24T16:02:36.470Z,112
2023-03-24T16:04:46.237Z,101
2023-03-24T16:05:08.858Z,95
2023-03-24T16:06:12.000Z,95
2023-03-24T16:07:41.246Z,95
2023-03-24T16:08:57.439Z,112
2023-03-24T16:10:13.884Z,135
2023-03-24T16:11:29.826Z,151
2023-03-24T16:12:46.019Z,168
2023-03-24T16:14:01.229Z,174
2023-03-24T16:15:17.423Z,174
2023-03-24T16:17:08.119Z,168
2023-03-24T16:17:49.810Z,174
2023-03-24T16:19:06.003Z,157
2023-03-24T16:20:09.000Z,123
2023-03-24T16:21:38.390Z,101
2023-03-24T16:22:53.610Z,84
2023-03-24T16:23:56.000Z,73
2023-03-24T16:25:25.015Z,61
2023-03-24T16:26:41.208Z,61
2023-03-24T16:27:44.000Z,56
2023-03-24T16:28:24.000Z,67
2023-03-24T16:29:12.621Z,50
2023-03-24T16:30:16.000Z,50
2023-03-24T16:31:31.000Z,56
2023-03-24T16:32:47.000Z,61
2023-03-24T16:35:32.606Z,78
2023-03-24T16:36:49.056Z,90
2023-03-24T16:37:52.000Z,90
2023-03-24T16:39:43.567Z,78
2023-03-24T16:40:37.380Z,67
2023-03-24T16:41:53.574Z,61
2023-03-24T16:43:10.015Z,56
2023-03-24T16:44:26.206Z,50
2023-03-24T16:45:29.000Z,50
2023-03-24T16:47:57.691Z,39
2023-03-24T16:48:00.000Z,28
2023-03-24T16:49:29.751Z,22
2023-03-24T16:50:45.944Z,22
2023-03-24T16:52:02.138Z,16
2023-03-24T16:53:18.595Z,11
2023-03-24T16:54:34.770Z,5
2023-03-24T16:55:38.000Z,5
2023-03-24T16:56:53.000Z,5
2023-03-24T16:58:09.000Z,0
2023-03-24T16:59:24.000Z,0
2023-03-24T17:00:52.562Z,0
2023-03-24T17:02:08.755Z,5
2023-03-24T17:03:12.000Z,16
2023-03-24T17:05:23.390Z,33
2023-03-24T17:05:57.335Z,39
2023-03-24T17:07:13.529Z,50
2023-03-24T17:08:29.968Z,50
2023-03-24T17:09:45.916Z,45
2023-03-24T17:11:02.109Z,50
2023-03-24T17:12:18.543Z,56
2023-03-24T17:13:34.496Z,90
2023-03-24T17:14:38.000Z,112
2023-03-24T17:16:06.883Z,84
2023-03-24T17:17:23.077Z,56
2023-03-24T17:18:38.287Z,45
2023-03-24T17:19:54.480Z,45
2023-03-24T17:21:10.675Z,45
2023-03-24T17:22:26.868Z,45
2023-03-24T17:23:43.319Z,45
2023-03-24T17:24:46.000Z,45
2023-03-24T17:26:15.694Z,39
2023-03-24T17:28:01.795Z,39
2023-03-24T17:28:34.000Z,33
2023-03-24T17:30:02.082Z,28
2023-03-24T17:31:17.293Z,28
2023-03-24T17:32:33.486Z,22
2023-03-24T17:33:49.679Z,22
2023-03-24T17:36:22.067Z,16
2023-03-24T17:38:17.333Z,16
2023-03-24T17:38:54.454Z,16
2023-03-24T17:39:57.000Z,11
2023-03-24T17:41:26.841Z,11
2023-03-24T17:42:30.000Z,11
2023-03-24T17:43:59.472Z,5
2023-03-24T17:45:02.000Z,5
2023-03-24T17:46:31.615Z,5
2023-03-24T17:47:46.825Z,5
2023-03-24T17:49:03.019Z,5
2023-03-24T17:50:39.216Z,5
2023-03-24T17:51:35.406Z,5
2023-03-24T17:52:51.858Z,0
2023-03-24T17:54:07.793Z,0
2023-03-24T17:55:11.000Z,0
2023-03-24T17:56:40.423Z,0
2023-03-24T17:57:42.000Z,0
2023-03-24T17:59:10.865Z,0
2023-03-24T18:00:26.073Z,0
2023-03-24T18:01:28.000Z,0